Time,TemperatureF,DewpointF,PressureIn,WindDirection,WindDirectionDegrees,WindSpeedMPH,WindSpeedGustMPH,Humidity,HourlyPrecipIn,Conditions,Clouds,dailyrainin,SoftwareType,DateUTC
2013-09-24 00:12:00,41.0,37.0,-100.00,NW,315,7.0,13.0,86,-99.99,,,-99.99,,2013-09-24 07:12:00,
2013-09-24 00:43:00,40.0,37.0,-100.00,West,270,7.0,13.0,92,-99.99,,,-99.99,,2013-09-24 07:43:00,
2013-09-24 00:52:00,40.0,38.0,-100.00,NW,315,8.0,13.0,93,-99.99,,,-99.99,,2013-09-24 07:52:00,
2013-09-24 01:11:00,40.0,38.0,-100.00,West,270,11.0,17.0,94,-99.99,,,-99.99,,2013-09-24 08:11:00,
2013-09-24 01:22:00,40.0,38.0,-100.00,NW,315,8.0,11.0,93,-99.99,,,-99.99,,2013-09-24 08:22:00,
2013-09-24 01:42:00,40.0,37.0,-100.00,NW,315,6.0,11.0,89,-99.99,,,-99.99,,2013-09-24 08:42:00,
2013-09-24 01:52:00,39.0,38.0,-100.00,SW,225,5.0,12.0,94,-99.99,,,-99.99,,2013-09-24 08:52:00,
2013-09-24 02:11:00,39.0,38.0,-100.00,West,270,5.0,8.0,93,-99.99,,,-99.99,,2013-09-24 09:11:00,
2013-09-24 02:21:00,39.0,38.0,-100.00,West,270,3.0,6.0,94,-99.99,,,-99.99,,2013-09-24 09:21:00,
2013-09-24 02:43:00,39.0,38.0,-100.00,West,270,4.0,9.0,97,-99.99,,,-99.99,,2013-09-24 09:43:00,
2013-09-24 02:53:00,39.0,38.0,-100.00,West,270,4.0,9.0,94,-99.99,,,-99.99,,2013-09-24 09:53:00,
2013-09-24 03:13:00,39.0,37.0,-100.00,West,270,3.0,4.0,91,-99.99,,,-99.99,,2013-09-24 10:13:00,
2013-09-24 03:23:00,40.0,37.0,-100.00,SW,225,3.0,4.0,89,-99.99,,,-99.99,,2013-09-24 10:23:00,
2013-09-24 03:42:00,40.0,37.0,-100.00,West,270,4.0,7.0,89,-99.99,,,-99.99,,2013-09-24 10:42:00,
2013-09-24 03:53:00,39.0,37.0,-100.00,SW,225,4.0,9.0,94,-99.99,,,-99.99,,2013-09-24 10:53:00,
2013-09-24 04:11:00,39.0,37.0,-100.00,West,270,6.0,10.0,93,-99.99,,,-99.99,,2013-09-24 11:11:00,
2013-09-24 04:22:00,39.0,38.0,-100.00,West,270,4.0,8.0,95,-99.99,,,-99.99,,2013-09-24 11:22:00,
2013-09-24 04:42:00,39.0,38.0,-100.00,West,270,5.0,10.0,95,-99.99,,,-99.99,,2013-09-24 11:42:00,
2013-09-24 04:52:00,39.0,37.0,-100.00,NW,315,4.0,12.0,94,-99.99,,,-99.99,,2013-09-24 11:52:00,
2013-09-24 05:12:00,39.0,37.0,-100.00,West,270,7.0,11.0,92,-99.99,,,-99.99,,2013-09-24 12:12:00,
2013-09-24 05:21:00,39.0,38.0,-100.00,SW,225,4.0,7.0,96,-99.99,,,-99.99,,2013-09-24 12:21:00,
2013-09-24 05:42:00,39.0,38.0,-100.00,West,270,1.0,6.0,96,-99.99,,,-99.99,,2013-09-24 12:42:00,
2013-09-24 05:52:00,39.0,37.0,-100.00,West,270,10.0,14.0,91,-99.99,,,-99.99,,2013-09-24 12:52:00,
2013-09-24 06:11:00,39.0,37.0,-100.00,West,270,9.0,18.0,92,-99.99,,,-99.99,,2013-09-24 13:11:00,
2013-09-24 06:21:00,38.0,37.0,-100.00,West,270,9.0,13.0,95,-99.99,,,-99.99,,2013-09-24 13:21:00,
2013-09-24 06:42:00,38.0,37.0,-100.00,West,270,7.0,13.0,95,-99.99,,,-99.99,,2013-09-24 13:42:00,
2013-09-24 06:52:00,38.0,36.0,-100.00,West,270,9.0,16.0,91,-99.99,,,-99.99,,2013-09-24 13:52:00,
2013-09-24 07:12:00,38.0,36.0,-100.00,West,270,10.0,16.0,93,-99.99,,,-99.99,,2013-09-24 14:12:00,
2013-09-24 07:21:00,39.0,36.0,-100.00,West,270,9.0,16.0,90,-99.99,,,-99.99,,2013-09-24 14:21:00,
2013-09-24 07:41:00,38.0,36.0,-100.00,West,270,7.0,15.0,93,-99.99,,,-99.99,,2013-09-24 14:41:00,
2013-09-24 07:52:00,38.0,37.0,-100.00,West,270,8.0,16.0,95,-99.99,,,-99.99,,2013-09-24 14:52:00,
2013-09-24 08:11:00,38.0,37.0,-100.00,NW,315,8.0,12.0,96,-99.99,,,-99.99,,2013-09-24 15:11:00,
2013-09-24 08:22:00,38.0,37.0,-100.00,West,270,7.0,11.0,97,-99.99,,,-99.99,,2013-09-24 15:22:00,
2013-09-24 08:43:00,37.0,35.0,-100.00,NW,315,8.0,12.0,93,-99.99,,,-99.99,,2013-09-24 15:43:00,
2013-09-24 08:53:00,37.0,35.0,-100.00,West,270,9.0,13.0,91,-99.99,,,-99.99,,2013-09-24 15:53:00,
2013-09-24 09:13:00,37.0,35.0,-100.00,NW,315,10.0,16.0,91,-99.99,,,-99.99,,2013-09-24 16:13:00,
2013-09-24 09:23:00,36.0,34.0,-100.00,West,270,10.0,18.0,90,-99.99,,,-99.99,,2013-09-24 16:23:00,
2013-09-24 09:43:00,36.0,34.0,-100.00,West,270,11.0,17.0,91,-99.99,,,-99.99,,2013-09-24 16:43:00,
2013-09-24 09:53:00,35.0,33.0,-100.00,West,270,10.0,17.0,92,-99.99,,,-99.99,,2013-09-24 16:53:00,
2013-09-24 10:12:00,36.0,34.0,-100.00,West,270,8.0,14.0,92,-99.99,,,-99.99,,2013-09-24 17:12:00,
2013-09-24 10:23:00,37.0,34.0,-100.00,West,270,7.0,13.0,91,-99.99,,,-99.99,,2013-09-24 17:23:00,
2013-09-24 10:43:00,37.0,35.0,-100.00,West,270,9.0,15.0,91,-99.99,,,-99.99,,2013-09-24 17:43:00,
2013-09-24 10:54:00,37.0,35.0,-100.00,West,270,8.0,16.0,90,-99.99,,,-99.99,,2013-09-24 17:54:00,
2013-09-24 11:12:00,37.0,33.0,-100.00,West,270,12.0,18.0,88,-99.99,,,-99.99,,2013-09-24 18:12:00,
2013-09-24 11:22:00,36.0,33.0,-100.00,NW,315,8.0,18.0,87,-99.99,,,-99.99,,2013-09-24 18:22:00,
2013-09-24 11:42:00,36.0,33.0,-100.00,West,270,6.0,17.0,88,-99.99,,,-99.99,,2013-09-24 18:42:00,
2013-09-24 11:52:00,35.0,33.0,-100.00,West,270,9.0,19.0,93,-99.99,,,-99.99,,2013-09-24 18:52:00,
2013-09-24 12:11:00,35.0,34.0,-100.00,West,270,8.0,17.0,94,-99.99,,,-99.99,,2013-09-24 19:11:00,
2013-09-24 12:22:00,35.0,33.0,-100.00,West,270,9.0,17.0,93,-99.99,,,-99.99,,2013-09-24 19:22:00,
2013-09-24 12:42:00,36.0,34.0,-100.00,West,270,8.0,15.0,94,-99.99,,,-99.99,,2013-09-24 19:42:00,
2013-09-24 12:52:00,37.0,35.0,-100.00,West,270,7.0,12.0,92,-99.99,,,-99.99,,2013-09-24 19:52:00,
2013-09-24 13:11:00,38.0,35.0,-100.00,West,270,8.0,11.0,88,-99.99,,,-99.99,,2013-09-24 20:11:00,
2013-09-24 13:22:00,40.0,35.0,-100.00,West,270,12.0,17.0,83,-99.99,,,-99.99,,2013-09-24 20:22:00,
2013-09-24 13:42:00,39.0,34.0,-100.00,West,270,12.0,24.0,82,-99.99,,,-99.99,,2013-09-24 20:42:00,
2013-09-24 13:52:00,39.0,36.0,-100.00,West,270,6.0,13.0,88,-99.99,,,-99.99,,2013-09-24 20:52:00,
2013-09-24 14:12:00,36.0,33.0,-100.00,West,270,13.0,19.0,88,-99.99,,,-99.99,,2013-09-24 21:12:00,
2013-09-24 14:21:00,36.0,33.0,-100.00,West,270,9.0,18.0,87,-99.99,,,-99.99,,2013-09-24 21:21:00,
2013-09-24 14:43:00,38.0,34.0,-100.00,NW,315,8.0,19.0,85,-99.99,,,-99.99,,2013-09-24 21:43:00,
2013-09-24 14:54:00,38.0,33.0,-100.00,West,270,11.0,16.0,82,-99.99,,,-99.99,,2013-09-24 21:54:00,
2013-09-24 15:13:00,40.0,33.0,-100.00,West,270,9.0,18.0,77,-99.99,,,-99.99,,2013-09-24 22:13:00,
2013-09-24 15:43:00,37.0,34.0,-100.00,NW,315,6.0,12.0,90,-99.99,,,-99.99,,2013-09-24 22:43:00,
2013-09-24 15:53:00,37.0,34.0,-100.00,NW,315,8.0,19.0,89,-99.99,,,-99.99,,2013-09-24 22:53:00,
2013-09-24 16:13:00,36.0,33.0,-100.00,West,270,8.0,12.0,89,-99.99,,,-99.99,,2013-09-24 23:13:00,
2013-09-24 16:22:00,37.0,34.0,-100.00,West,270,8.0,13.0,90,-99.99,,,-99.99,,2013-09-24 23:22:00,
2013-09-24 16:43:00,37.0,35.0,-100.00,West,270,4.0,17.0,92,-99.99,,,-99.99,,2013-09-24 23:43:00,
2013-09-24 16:53:00,36.0,33.0,-100.00,NW,315,10.0,18.0,88,-99.99,,,-99.99,,2013-09-24 23:53:00,
2013-09-24 17:12:00,36.0,33.0,-100.00,NW,315,7.0,14.0,88,-99.99,,,-99.99,,2013-09-25 00:12:00,
2013-09-24 17:22:00,36.0,33.0,-100.00,NW,315,9.0,13.0,89,-99.99,,,-99.99,,2013-09-25 00:22:00,
2013-09-24 17:52:00,36.0,34.0,-100.00,NW,315,6.0,11.0,94,-99.99,,,-99.99,,2013-09-25 00:52:00,
2013-09-24 18:12:00,36.0,33.0,-100.00,West,270,7.0,11.0,91,-99.99,,,-99.99,,2013-09-25 01:12:00,
2013-09-24 18:21:00,35.0,34.0,-100.00,West,270,8.0,11.0,93,-99.99,,,-99.99,,2013-09-25 01:21:00,
2013-09-24 18:42:00,35.0,33.0,-100.00,NW,315,10.0,14.0,91,-99.99,,,-99.99,,2013-09-25 01:42:00,
2013-09-24 18:52:00,34.0,32.0,-100.00,West,270,9.0,14.0,93,-99.99,,,-99.99,,2013-09-25 01:52:00,
2013-09-24 19:11:00,34.0,32.0,-100.00,NW,315,7.0,12.0,90,-99.99,,,-99.99,,2013-09-25 02:11:00,
2013-09-24 19:21:00,34.0,31.0,-100.00,West,270,8.0,11.0,88,-99.99,,,-99.99,,2013-09-25 02:21:00,
2013-09-24 19:42:00,34.0,32.0,-100.00,West,270,7.0,12.0,91,-99.99,,,-99.99,,2013-09-25 02:42:00,
2013-09-24 19:52:00,34.0,31.0,-100.00,NW,315,8.0,12.0,89,-99.99,,,-99.99,,2013-09-25 02:52:00,
2013-09-24 20:11:00,34.0,31.0,-100.00,West,270,6.0,14.0,90,-99.99,,,-99.99,,2013-09-25 03:11:00,
2013-09-24 20:23:00,33.0,32.0,-100.00,NW,315,3.0,9.0,94,-99.99,,,-99.99,,2013-09-25 03:23:00,
2013-09-24 20:44:00,33.0,32.0,-100.00,West,270,4.0,6.0,94,-99.99,,,-99.99,,2013-09-25 03:44:00,
2013-09-24 20:54:00,33.0,31.0,-100.00,West,270,8.0,11.0,91,-99.99,,,-99.99,,2013-09-25 03:54:00,
2013-09-24 21:24:00,33.0,32.0,-100.00,NW,315,1.0,5.0,94,-99.99,,,-99.99,,2013-09-25 04:24:00,
2013-09-24 21:42:00,33.0,31.0,-100.00,NW,315,3.0,6.0,93,-99.99,,,-99.99,,2013-09-25 04:42:00,
2013-09-24 21:54:00,32.0,31.0,-100.00,NW,315,3.0,6.0,94,-99.99,,,-99.99,,2013-09-25 04:54:00,
2013-09-24 22:12:00,32.0,31.0,-100.00,West,270,2.0,4.0,93,-99.99,,,-99.99,,2013-09-25 05:12:00,
2013-09-24 22:23:00,33.0,30.0,-100.00,NW,315,4.0,11.0,89,-99.99,,,-99.99,,2013-09-25 05:23:00,
2013-09-24 22:44:00,33.0,30.0,-100.00,West,270,9.0,12.0,89,-99.99,,,-99.99,,2013-09-25 05:44:00,
2013-09-24 22:53:00,32.0,30.0,-100.00,NW,315,8.0,14.0,92,-99.99,,,-99.99,,2013-09-25 05:53:00,
2013-09-24 23:13:00,33.0,30.0,-100.00,West,270,6.0,12.0,90,-99.99,,,-99.99,,2013-09-25 06:13:00,
2013-09-24 23:23:00,32.0,30.0,-100.00,West,270,1.0,4.0,90,-99.99,,,-99.99,,2013-09-25 06:23:00,
2013-09-24 23:42:00,33.0,30.0,-100.00,West,270,1.0,3.0,89,-99.99,,,-99.99,,2013-09-25 06:42:00,
2013-09-24 23:52:00,32.0,30.0,-100.00,West,270,3.0,5.0,89,-99.99,,,-99.99,,2013-09-25 06:52:00,